createdAt,value
2016-03-13T12:04:28.510Z,0.44
2016-03-13T12:05:37.672Z,0.35
2016-03-13T12:06:28.906Z,0.39
2016-03-13T12:08:28.942Z,0.41
2016-03-13T12:09:37.744Z,0.39
2016-03-13T12:10:29.322Z,0.52
2016-03-13T12:11:28.810Z,0.5
2016-03-13T12:12:29.422Z,0.57
2016-03-13T12:13:28.863Z,0.45
2016-03-13T12:14:28.866Z,0.48
2016-03-13T12:15:28.696Z,0.52
2016-03-13T12:16:28.777Z,0.53
2016-03-13T12:17:36.669Z,0.53
2016-03-13T12:18:28.813Z,0.5
2016-03-13T12:19:28.675Z,0.47
2016-03-13T12:20:29.053Z,0.48
2016-03-13T12:21:28.727Z,0.52
2016-03-13T12:22:28.793Z,0.64
2016-03-13T12:23:28.561Z,0.56
2016-03-13T12:24:28.783Z,0.66
2016-03-13T12:25:28.707Z,0.58
2016-03-13T12:26:28.616Z,0.47
2016-03-13T12:27:28.650Z,0.53
2016-03-13T12:28:37.734Z,0.37
2016-03-13T12:29:28.656Z,0.42
2016-03-13T12:30:28.658Z,0.39
2016-03-13T12:31:28.693Z,0.44
2016-03-13T12:32:28.617Z,0.38
2016-03-13T12:33:28.698Z,0.44
2016-03-13T12:34:28.685Z,0.35
2016-03-13T12:35:28.593Z,0.37
2016-03-13T12:36:28.659Z,0.41
2016-03-13T12:37:28.552Z,0.41
2016-03-13T12:38:28.430Z,0.42
2016-03-13T12:39:36.886Z,0.48
2016-03-13T12:40:28.560Z,0.44
2016-03-13T12:41:28.422Z,0.44
2016-03-13T12:42:28.534Z,0.44
2016-03-13T12:43:36.178Z,0.48
2016-03-13T12:44:28.399Z,0.5
2016-03-13T12:45:28.339Z,0.48
2016-03-13T12:46:28.436Z,0.45
2016-03-13T12:47:28.375Z,0.58
2016-03-13T12:50:28.353Z,0.52
2016-03-13T12:51:28.340Z,0.53
2016-03-13T12:52:36.685Z,0.56
2016-03-13T12:53:28.377Z,0.53
2016-03-13T12:54:28.785Z,0.57
2016-03-13T12:55:28.366Z,0.56
2016-03-13T12:56:28.604Z,0.5
2016-03-13T12:57:28.277Z,0.48
2016-03-13T12:58:29.202Z,0.63
2016-03-13T12:59:28.376Z,0.63
2016-03-13T13:00:28.176Z,0.61
2016-03-13T13:01:28.179Z,0.63
2016-03-13T13:02:28.166Z,0.63
2016-03-13T13:03:28.185Z,0.67
2016-03-13T13:04:28.171Z,0.6
2016-03-13T13:05:28.143Z,0.61
2016-03-13T13:06:28.051Z,0.66
2016-03-13T13:07:28.117Z,0.63
2016-03-13T13:08:28.104Z,0.64
2016-03-13T13:09:28.001Z,0.69
2016-03-13T13:10:28.191Z,0.6
2016-03-13T13:11:28.226Z,0.53
2016-03-13T13:12:28.166Z,0.56
2016-03-13T13:13:28.152Z,0.47
2016-03-13T13:14:28.046Z,0.56
2016-03-13T13:15:27.955Z,0.53
2016-03-13T13:16:33.629Z,0.5
2016-03-13T13:17:27.992Z,0.52
2016-03-13T13:18:27.931Z,0.5
2016-03-13T13:19:28.029Z,0.57
2016-03-13T13:20:28.046Z,0.53
2016-03-13T13:21:27.986Z,0.5
2016-03-13T13:22:27.942Z,0.56
2016-03-13T13:23:27.633Z,0.56
2016-03-13T13:24:27.917Z,0.47
2016-03-13T13:25:27.889Z,0.48
2016-03-13T13:26:27.859Z,0.53
2016-03-13T13:27:28.034Z,0.45
2016-03-13T13:28:27.974Z,0.48
2016-03-13T13:29:27.977Z,0.47
2016-03-13T13:30:27.917Z,0.41
2016-03-13T13:31:27.858Z,0.45
2016-03-13T13:32:27.908Z,0.37
2016-03-13T13:33:27.706Z,0.41
2016-03-13T13:34:27.803Z,0.35
2016-03-13T13:35:27.774Z,0.45
2016-03-13T13:36:27.699Z,0.41
2016-03-13T13:38:27.719Z,0.24
2016-03-13T13:39:27.676Z,0.31
2016-03-13T13:40:27.865Z,0.24
2016-03-13T13:41:27.822Z,0.23
2016-03-13T13:42:27.700Z,0.32
2016-03-13T13:43:26.796Z,0.34
2016-03-13T13:44:27.705Z,0.28
2016-03-13T13:45:35.677Z,0.37
2016-03-13T13:46:27.633Z,0.42
2016-03-13T13:47:27.573Z,0.5
2016-03-13T13:48:27.591Z,0.44
2016-03-13T13:49:27.593Z,0.58
2016-03-13T13:50:27.862Z,0.53
2016-03-13T13:51:27.474Z,0.5
2016-03-13T13:52:27.664Z,0.56
2016-03-13T13:53:27.541Z,0.53
2016-03-13T13:54:27.545Z,0.5
2016-03-13T13:55:27.672Z,0.5
2016-03-13T13:56:27.581Z,0.47
2016-03-13T13:57:27.459Z,0.57
2016-03-13T13:58:27.555Z,0.53
2016-03-13T13:59:27.464Z,0.52
2016-03-13T14:00:27.483Z,0.58
2016-03-13T14:01:27.454Z,0.57
2016-03-13T14:02:27.081Z,0.53
2016-03-13T14:03:27.474Z,0.58
2016-03-13T14:04:27.353Z,0.57
2016-03-13T14:05:27.433Z,0.53
2016-03-13T14:06:27.514Z,0.52
2016-03-13T14:07:27.266Z,0.5
2016-03-13T14:08:27.348Z,0.53
2016-03-13T14:09:27.335Z,0.53
2016-03-13T14:10:27.228Z,0.5
2016-03-13T14:11:27.277Z,0.5
2016-03-13T14:12:27.311Z,0.56
2016-03-13T14:13:27.408Z,0.52
2016-03-13T14:14:27.301Z,0.56
2016-03-13T14:15:27.366Z,0.5
2016-03-13T14:16:27.197Z,0.5
2016-03-13T14:17:27.153Z,0.53
2016-03-13T14:18:27.327Z,0.48
2016-03-13T14:19:27.174Z,0.52
2016-03-13T14:20:27.161Z,0.45
2016-03-13T14:21:27.257Z,0.47
2016-03-13T14:22:27.307Z,0.53
2016-03-13T14:23:27.138Z,0.44
2016-03-13T14:24:27.140Z,0.39
2016-03-13T14:25:27.143Z,0.35
2016-03-13T14:26:27.098Z,0.35
2016-03-13T14:27:27.118Z,0.34
2016-03-13T14:28:28.761Z,0.35
2016-03-13T14:29:26.998Z,0.44
2016-03-13T14:30:27.094Z,0.31
2016-03-13T14:31:27.128Z,0.26
2016-03-13T14:32:35.678Z,0.26
2016-03-13T14:33:26.961Z,0.24
2016-03-13T14:34:27.058Z,0.28
2016-03-13T14:35:26.952Z,0.17
2016-03-13T14:36:27.017Z,0.24
2016-03-13T14:37:27.222Z,0.28
2016-03-13T14:38:26.944Z,0.28
2016-03-13T14:39:27.509Z,0.23
2016-03-13T14:40:26.918Z,0.21
2016-03-13T14:41:27.233Z,0.32
2016-03-13T14:42:26.986Z,0.32
2016-03-13T14:43:26.832Z,0.35
2016-03-13T14:44:27.054Z,0.38
2016-03-13T14:45:26.790Z,0.34
2016-03-13T14:46:26.732Z,0.26
2016-03-13T14:47:26.843Z,0.24
2016-03-13T14:48:26.908Z,0.37
2016-03-13T14:49:26.802Z,0.39
2016-03-13T14:50:26.835Z,0.35
2016-03-13T14:51:26.854Z,0.39
2016-03-13T14:52:26.747Z,0.35
2016-03-13T14:53:26.859Z,0.41
2016-03-13T14:54:35.112Z,0.47
2016-03-13T14:55:26.709Z,0.32
2016-03-13T14:56:26.649Z,0.42
2016-03-13T14:57:26.682Z,0.32
2016-03-13T14:58:26.685Z,0.39
2016-03-13T14:59:26.562Z,0.34
2016-03-13T15:00:27.237Z,0.28
2016-03-13T15:01:26.692Z,0.19
2016-03-13T15:02:26.853Z,0.27
2016-03-13T15:03:26.542Z,0.21
2016-03-13T15:04:26.638Z,0.17
2016-03-13T15:05:26.517Z,0.16
2016-03-13T15:06:26.567Z,0.1
2016-03-13T15:07:26.553Z,0.17
2016-03-13T15:08:26.477Z,0.05
2016-03-13T15:09:34.808Z,0.06
2016-03-13T15:10:26.467Z,0.13
2016-03-13T15:11:26.580Z,0.13
2016-03-13T15:12:26.536Z,0.08
2016-03-13T15:13:26.429Z,0.06
2016-03-13T15:14:26.432Z,0.08
2016-03-13T15:15:26.606Z,0.05
2016-03-13T15:16:26.344Z,-0.01
2016-03-13T15:17:26.565Z,-0.04
2016-03-13T15:18:26.349Z,0.09
2016-03-13T15:19:26.695Z,-0.02
2016-03-13T15:20:26.323Z,0.13
2016-03-13T15:21:26.559Z,0.13
2016-03-13T15:22:26.266Z,0.09
2016-03-13T15:23:26.627Z,0.06
2016-03-13T15:24:26.270Z,0.05
2016-03-13T15:25:26.351Z,0.01
2016-03-13T15:26:26.229Z,0.01
2016-03-13T15:27:26.279Z,0.01
2016-03-13T15:28:26.265Z,0.09
2016-03-13T15:29:28.082Z,0.1
2016-03-13T15:30:26.350Z,0.08
2016-03-13T15:31:26.243Z,0.08
2016-03-13T15:32:26.167Z,0.1
2016-03-13T15:33:26.139Z,0.09
2016-03-13T15:34:26.095Z,0.05
2016-03-13T15:35:26.098Z,-0.04
2016-03-13T15:36:26.116Z,-0.04
2016-03-13T15:37:26.134Z,-0.04
2016-03-13T15:38:26.043Z,-0.01
2016-03-13T15:39:25.999Z,0.02
2016-03-13T15:40:26.189Z,-0.01
2016-03-13T15:41:25.942Z,0.02
2016-03-13T15:42:26.819Z,0.02
2016-03-13T15:43:25.963Z,0.06
2016-03-13T15:44:26.294Z,0.01
2016-03-13T15:46:26.127Z,-0.01
2016-03-13T15:47:26.035Z,0.01
2016-03-13T15:48:25.929Z,0.03
2016-03-13T15:49:25.838Z,0.02
2016-03-13T15:50:25.919Z,0.05
2016-03-13T15:51:25.891Z,0.02
2016-03-13T15:52:26.018Z,-0.02
2016-03-13T15:53:26.037Z,0.02
2016-03-13T15:54:25.867Z,-0.04
2016-03-13T15:55:25.854Z,0.01
2016-03-13T15:56:31.623Z,-0.07
2016-03-13T15:57:25.812Z,-0.09
2016-03-13T15:58:25.784Z,-0.04
2016-03-13T15:59:25.770Z,-0.13
2016-03-13T16:00:28.383Z,-0.09
2016-03-13T16:01:25.761Z,-0.23
2016-03-13T16:02:25.842Z,-0.31
2016-03-13T16:03:25.751Z,-0.34
2016-03-13T16:05:25.709Z,-0.23
2016-03-13T16:06:25.711Z,-0.27
2016-03-13T16:07:28.403Z,-0.28
2016-03-13T16:08:25.670Z,-0.31
2016-03-13T16:09:25.642Z,-0.15
2016-03-13T16:10:25.800Z,-0.25
2016-03-13T16:11:25.600Z,-0.16
2016-03-13T16:12:25.572Z,-0.22
2016-03-13T16:13:25.669Z,-0.19
2016-03-13T16:14:25.594Z,-0.27
2016-03-13T16:15:25.658Z,-0.25
2016-03-13T16:16:25.614Z,-0.22
2016-03-13T16:17:25.569Z,-0.33
2016-03-13T16:18:25.541Z,-0.36
2016-03-13T16:19:25.669Z,-0.45
2016-03-13T16:20:25.609Z,-0.45
2016-03-13T16:21:25.579Z,-0.4
2016-03-13T16:22:25.567Z,-0.4
2016-03-13T16:23:25.523Z,-0.38
2016-03-13T16:24:25.510Z,-0.55
2016-03-13T16:25:25.418Z,-0.55
2016-03-13T16:26:25.485Z,-0.51
2016-03-13T16:27:25.471Z,-0.43
2016-03-13T16:28:23.911Z,-0.4
2016-03-13T16:29:23.867Z,-0.43
2016-03-13T16:30:23.870Z,-0.4
2016-03-13T16:31:23.889Z,-0.36
2016-03-13T16:32:23.922Z,-0.51
2016-03-13T16:33:23.815Z,-0.38
2016-03-13T16:34:23.928Z,-0.46
2016-03-13T16:35:23.821Z,-0.52
2016-03-13T16:36:23.871Z,-0.55
2016-03-13T16:37:23.795Z,-0.49
2016-03-13T16:38:23.783Z,-0.46
2016-03-13T16:39:23.754Z,-0.51
2016-03-13T16:40:23.772Z,-0.48
2016-03-13T16:41:23.775Z,-0.54
2016-03-13T16:42:23.637Z,-0.37
2016-03-13T16:43:23.858Z,-0.51
2016-03-13T16:44:23.705Z,-0.54
2016-03-13T16:45:23.808Z,-0.49
2016-03-13T16:46:23.608Z,-0.56
2016-03-13T16:47:23.658Z,-0.59
2016-03-13T16:48:23.645Z,-0.52
2016-03-13T16:49:23.648Z,-0.55
2016-03-13T16:50:23.557Z,-0.61
2016-03-13T16:51:23.699Z,-0.55
2016-03-13T16:52:23.546Z,-0.59
2016-03-13T16:53:23.612Z,-0.55
2016-03-13T16:54:23.490Z,-0.59
2016-03-13T16:55:23.554Z,-0.52
2016-03-13T16:56:23.495Z,-0.64
2016-03-13T16:57:23.544Z,-0.62
2016-03-13T16:58:23.469Z,-0.73
2016-03-13T16:59:23.425Z,-0.61
2016-03-13T17:00:23.490Z,-0.55
2016-03-13T17:01:23.446Z,-0.69
2016-03-13T17:02:23.448Z,-0.7
2016-03-13T17:03:23.467Z,-0.73
2016-03-13T17:04:23.470Z,-0.64
2016-03-13T17:05:23.362Z,-0.59
2016-03-13T17:06:23.334Z,-0.66
2016-03-13T17:07:23.352Z,-0.66
2016-03-13T17:08:23.308Z,-0.7
2016-03-13T17:09:23.358Z,-0.62
2016-03-13T17:10:23.361Z,-0.67
2016-03-13T17:11:23.253Z,-0.64
2016-03-13T17:12:23.336Z,-0.7
2016-03-13T17:13:23.275Z,-0.64
2016-03-13T17:14:23.294Z,-0.66
2016-03-13T17:15:30.514Z,-0.69
2016-03-13T17:16:23.236Z,-0.74
2016-03-13T17:17:23.238Z,-0.74
2016-03-13T17:18:23.226Z,-0.58
2016-03-13T17:19:23.182Z,-0.62
2016-03-13T17:20:23.231Z,-0.69
2016-03-13T17:21:23.280Z,-0.67
2016-03-13T17:22:23.127Z,-0.69
2016-03-13T17:23:23.224Z,-0.64
2016-03-13T17:24:23.117Z,-0.69
2016-03-13T17:25:23.213Z,-0.64
2016-03-13T17:26:23.091Z,-0.72
2016-03-13T17:27:23.031Z,-0.69
2016-03-13T17:28:23.081Z,-0.66
2016-03-13T17:29:23.068Z,-0.69
2016-03-13T17:30:23.039Z,-0.69
2016-03-13T17:31:22.854Z,-0.7
2016-03-13T17:32:22.934Z,-0.67
2016-03-13T17:33:23.453Z,-0.77
2016-03-13T17:34:22.972Z,-0.76
2016-03-13T17:35:23.022Z,-0.87
2016-03-13T17:36:23.008Z,-0.76
2016-03-13T17:37:22.903Z,-0.76
2016-03-13T17:38:22.905Z,-0.8
2016-03-13T17:39:22.923Z,-0.91
2016-03-13T17:40:22.878Z,-0.79
2016-03-13T17:41:22.866Z,-0.82
2016-03-13T17:42:22.875Z,-0.82
2016-03-13T17:43:22.908Z,-0.87
2016-03-13T17:44:23.051Z,-0.84
2016-03-13T17:45:22.804Z,-0.82
2016-03-13T17:46:22.729Z,-0.89
2016-03-13T17:47:22.721Z,-0.85
2016-03-13T17:48:22.685Z,-0.82
2016-03-13T17:49:22.854Z,-0.89
2016-03-13T17:50:22.679Z,-0.82
2016-03-13T17:51:22.708Z,-0.87
2016-03-13T17:52:22.597Z,-0.82
2016-03-13T17:53:22.536Z,-0.91
2016-03-13T17:54:22.583Z,-0.84
2016-03-13T17:55:22.504Z,-0.82
2016-03-13T17:56:22.599Z,-0.84
2016-03-13T17:57:22.569Z,-0.89
2016-03-13T17:58:22.508Z,-0.87
2016-03-13T17:59:22.557Z,-0.87
2016-03-13T18:00:22.544Z,-0.89
2016-03-13T18:01:22.482Z,-0.82
2016-03-13T18:03:22.565Z,-0.82
2016-03-13T18:04:22.412Z,-0.93
2016-03-13T18:05:22.509Z,-0.98
2016-03-13T18:06:22.435Z,-1.01
2016-03-13T18:08:22.455Z,-0.96
2016-03-13T18:09:22.349Z,-0.99
2016-03-13T18:11:22.401Z,-0.96
2016-03-13T18:12:22.404Z,-0.96
2016-03-13T18:13:22.203Z,-0.96
2016-03-13T18:14:22.268Z,-0.98
2016-03-13T18:15:22.318Z,-0.95
2016-03-13T18:16:22.273Z,-0.96
2016-03-13T18:17:22.245Z,-1.03
2016-03-13T18:18:22.201Z,-0.98
2016-03-13T18:19:22.156Z,-1.03
2016-03-13T18:20:22.223Z,-0.96
2016-03-13T18:21:22.240Z,-0.95
2016-03-13T18:22:30.618Z,-0.96
2016-03-13T18:23:22.137Z,-0.93
2016-03-13T18:24:22.155Z,-0.98
2016-03-13T18:25:22.141Z,-1.04
2016-03-13T18:26:22.144Z,-0.95
2016-03-13T18:28:08.666Z,-0.96
2016-03-13T18:29:08.544Z,-1.01
2016-03-13T18:30:08.624Z,-0.99
2016-03-13T18:31:07.080Z,-1.03
2016-03-13T18:32:07.191Z,-0.96
2016-03-13T18:33:07.069Z,-0.99
2016-03-13T18:34:07.071Z,-0.99
2016-03-13T18:35:07.060Z,-1.07
2016-03-13T18:37:06.877Z,-1.01
2016-03-13T18:38:07.005Z,-1.01
2016-03-13T18:39:06.945Z,-0.95
2016-03-13T18:40:06.979Z,-1.03
2016-03-13T18:41:06.201Z,-1.01
2016-03-13T18:42:06.874Z,-0.98
2016-03-13T18:43:06.831Z,-0.99
2016-03-13T18:45:07.165Z,-1.01
2016-03-13T18:46:15.635Z,-0.95
2016-03-13T18:47:06.779Z,-0.92
2016-03-13T18:48:06.813Z,-1.01
2016-03-13T18:49:06.800Z,-1.01
2016-03-13T18:50:15.600Z,-0.95
2016-03-13T18:51:06.806Z,-0.92
2016-03-13T18:52:06.698Z,-0.95
2016-03-13T18:53:06.733Z,-0.98
2016-03-13T18:54:06.704Z,-1.01
2016-03-13T18:55:07.175Z,-0.96
2016-03-13T18:56:06.709Z,-0.95
2016-03-13T18:57:06.603Z,-0.87
2016-03-13T18:58:06.730Z,-0.93
2016-03-13T18:59:06.702Z,-0.85
2016-03-13T19:00:06.580Z,-0.98
2016-03-13T19:01:06.613Z,-0.85
2016-03-13T19:02:06.585Z,-0.85
2016-03-13T19:03:06.572Z,-0.85
2016-03-13T19:04:06.527Z,-0.84
2016-03-13T19:05:07.656Z,-0.89
2016-03-13T19:06:06.596Z,-0.87
2016-03-13T19:07:06.613Z,-0.82
2016-03-13T19:08:06.570Z,-0.89
2016-03-13T19:09:06.526Z,-0.91
2016-03-13T19:10:06.450Z,-0.85
2016-03-13T19:11:06.406Z,-0.89
2016-03-13T19:12:06.565Z,-0.87
2016-03-13T19:13:06.427Z,-0.73
2016-03-13T19:14:06.540Z,-0.79
2016-03-13T19:15:06.354Z,-0.82
2016-03-13T19:16:06.497Z,-0.91
2016-03-13T19:17:06.390Z,-0.84
2016-03-13T19:18:06.378Z,-0.82
2016-03-13T19:19:06.349Z,-0.8
2016-03-13T19:20:06.398Z,-0.85
2016-03-13T19:21:06.386Z,-0.89
2016-03-13T19:22:06.326Z,-0.89
2016-03-13T19:23:06.328Z,-0.85
2016-03-13T19:24:06.284Z,-0.85
2016-03-13T19:25:06.209Z,-0.87
2016-03-13T19:27:06.230Z,-0.84
2016-03-13T19:28:06.155Z,-0.85
2016-03-13T19:30:06.161Z,-0.85
2016-03-13T19:31:06.256Z,-0.87
2016-03-13T19:32:06.338Z,-0.87
2016-03-13T19:33:06.169Z,-0.84
2016-03-13T19:34:06.139Z,-0.91
2016-03-13T19:35:06.221Z,-0.93
2016-03-13T19:36:14.677Z,-0.87
2016-03-13T19:37:06.069Z,-0.93
2016-03-13T19:38:06.135Z,-0.82
2016-03-13T19:39:06.075Z,-0.87
2016-03-13T19:40:06.125Z,-0.89
2016-03-13T19:41:06.080Z,-0.89
2016-03-13T19:42:06.130Z,-0.84
2016-03-13T19:43:05.992Z,-0.85
2016-03-13T19:44:05.948Z,-0.85
2016-03-13T19:45:05.966Z,-0.84
2016-03-13T19:46:05.937Z,-0.89
2016-03-13T19:48:05.864Z,-0.87
2016-03-13T19:49:05.852Z,-0.85
2016-03-13T19:50:06.651Z,-0.87
2016-03-13T19:51:05.889Z,-0.89
2016-03-13T19:52:05.860Z,-0.84
2016-03-13T19:53:05.800Z,-0.84
2016-03-13T19:54:05.912Z,-0.89
2016-03-13T19:55:05.853Z,-0.85
2016-03-13T19:56:05.855Z,-0.85
2016-03-13T19:57:05.920Z,-0.82
2016-03-13T19:58:05.861Z,-0.8
2016-03-13T19:59:05.722Z,-0.82
2016-03-13T20:00:05.710Z,-0.87
2016-03-13T20:01:05.759Z,-0.79
2016-03-13T20:03:05.702Z,-0.77
2016-03-13T20:04:05.799Z,-0.87
2016-03-13T20:05:05.660Z,-0.8
2016-03-13T20:06:05.710Z,-0.82
2016-03-13T20:07:05.666Z,-0.84
2016-03-13T20:08:05.730Z,-0.84
2016-03-13T20:09:05.641Z,-0.82
2016-03-13T20:10:05.611Z,-0.84
2016-03-13T20:12:05.679Z,-0.79
2016-03-13T20:13:05.776Z,-0.79
2016-03-13T20:14:05.607Z,-0.76
2016-03-13T20:15:05.562Z,-0.91
2016-03-13T20:16:05.487Z,-0.87
2016-03-13T20:17:05.505Z,-0.87
2016-03-13T20:18:05.523Z,-0.91
2016-03-13T20:19:05.590Z,-0.85
2016-03-13T20:20:05.451Z,-0.79
2016-03-13T20:21:05.515Z,-0.79
2016-03-13T20:22:05.410Z,-0.82
2016-03-13T20:23:05.521Z,-0.84
2016-03-13T20:24:05.399Z,-0.85
2016-03-13T20:25:05.401Z,-0.77
2016-03-13T20:26:05.483Z,-0.82
2016-03-13T20:27:05.361Z,-0.79
2016-03-13T20:28:05.379Z,-0.8
2016-03-13T20:29:05.537Z,-0.84
2016-03-13T20:30:05.353Z,-0.79
2016-03-13T20:31:05.277Z,-0.72
